首页
METAR-TAF:

METAR-TAF

机场 :

Fort Bragg, 北卡罗来纳州, 美国

纬度: 35-08N, 经度: 078-56W, 海拔: 74米

当前天气观测

该预报发布于23分钟前的11:44 UTC
风速5节,风向
温度 24°C
湿度 100%
气压 1012 hPa
能見度: 16.1公里
阴天层高于1200英尺
小雨

METAR: KFBG 091144Z AUTO 36005KT 10SM -RA OVC012 24/24 A2988 RMK AO2 RAB44 CIG 008V014 SLP119 $

时间: 08:07 (12:07 UTC)

预报

该预报发布于1小时和41分钟前的10:26 UTC
预报有效从09日的 10点(UTC)到 10日的 15点(UTC)
风速6节,风向多变
能見度: 8000
多云层高于1500英尺
轻雾
成为
从 09日的 12点(UTC)到 09日的 13点(UTC)
风速9节,风向北转东北
能见度10公里或以上
散云层高于1500英尺
多云层高于3000英尺
成为
从 09日的 16点(UTC)到 09日的 17点(UTC)
风速12节,风向北转东北
能見度: 9000
散云层高于1500英尺
多云层高于3000英尺
多云层高于5000英尺
小阵雨
短暂存在
从 09日的 20点(UTC)到 09日的 23点(UTC)
风速12节,风向北转东北,有时为18节阵风
能見度: 8000
多云层高于2500英尺, 积雨云.
多云层高于4500英尺
雷暴, 小雨
成为
从 10日的 02点(UTC)到 10日的 03点(UTC)
风速6节,风向
能见度10公里或以上
多云层高于2500英尺
多云层高于5000英尺
成为
从 10日的 09点(UTC)到 10日的 10点(UTC)
风速6节,风向多变
能見度: 8000
散云层高于800英尺
轻雾
成为
从 10日的 14点(UTC)到 10日的 15点(UTC)
风速10节,风向,有时为15节阵风
能见度10公里或以上
散云层高于1500英尺

TAF: KFBG 091026Z 0910/1015 VRB06KT 8000 BR BKN015 QNH2980INS BECMG 0912/0913 02009KT 9999 NSW SCT015 BKN030 QNH2984INS BECMG 0916/0917 03012KT 9000 -SHRA SCT015 BKN030 BKN050 QNH2985INS TEMPO 0920/0923 02012G18KT 8000 -TSRA BKN025CB BKN045 BECMG 1002/1003 36006KT 9999 NSW BKN025 BKN050 QNH2982INS BECMG 1009/1010 VRB06KT 8000 BR SCT008 QNH2987INS BECMG 1014/1015 35010G15KT 9999 NSW SCT015 QNH2992INS TX30/0919Z TN23/1009Z

超过4000个机场的气象观测和天气预报(METAR&TAF报告)。

可查询的气象台以黄色和红色小点在地图上表示。

将鼠标移到小点上方,可查看气象台名称。

然后点击查看天气观测和预报。

如需切换地图:点击带黑十字的绿色按钮放大地图;点击带横线的绿色按钮缩小地图;或者点击绿色箭头查看邻近地区的地图。


METAR-TAF: